createdAt,value
2017-12-28T00:01:25.263Z,10.93
2017-12-28T00:03:52.002Z,10.13
2017-12-28T00:06:18.723Z,11.50
2017-12-28T00:08:45.432Z,11.03
2017-12-28T00:11:12.171Z,10.27
2017-12-28T00:13:38.885Z,14.77
2017-12-28T00:16:05.592Z,14.03
2017-12-28T00:18:32.339Z,11.47
2017-12-28T00:20:59.053Z,10.30
2017-12-28T00:23:25.777Z,10.30
2017-12-28T00:25:52.509Z,9.03
2017-12-28T00:28:19.217Z,9.60
2017-12-28T00:30:45.935Z,8.90
2017-12-28T00:33:12.685Z,9.50
2017-12-28T00:35:39.434Z,10.23
2017-12-28T00:38:06.174Z,9.37
2017-12-28T00:40:32.897Z,9.00
2017-12-28T00:42:59.613Z,9.83
2017-12-28T00:45:26.340Z,9.00
2017-12-28T00:47:53.067Z,11.07
2017-12-28T00:50:19.808Z,9.20
2017-12-28T00:52:46.533Z,10.10
2017-12-28T00:55:13.240Z,9.17
2017-12-28T00:57:39.944Z,8.77
2017-12-28T01:00:06.694Z,9.27
2017-12-28T01:02:33.431Z,9.47
2017-12-28T01:05:00.140Z,9.50
2017-12-28T01:07:26.840Z,9.43
2017-12-28T01:09:53.569Z,9.07
2017-12-28T01:12:20.301Z,8.67
2017-12-28T01:14:47.027Z,9.17
2017-12-28T01:17:13.756Z,8.60
2017-12-28T01:19:40.475Z,8.30
2017-12-28T01:22:07.182Z,8.57
2017-12-28T01:24:33.921Z,8.73
2017-12-28T01:27:00.639Z,8.57
2017-12-28T01:29:27.349Z,8.00
2017-12-28T01:31:54.100Z,7.70
2017-12-28T01:34:20.817Z,8.67
2017-12-28T01:36:47.540Z,8.00
2017-12-28T01:39:14.265Z,7.77
2017-12-28T01:41:41.013Z,8.30
2017-12-28T01:44:07.744Z,7.80
2017-12-28T01:46:34.464Z,8.40
2017-12-28T01:49:01.189Z,8.80
2017-12-28T01:51:27.898Z,9.40
2017-12-28T01:53:54.605Z,7.50
2017-12-28T01:56:21.327Z,8.13
2017-12-28T01:58:48.035Z,7.40
2017-12-28T02:01:14.755Z,7.60
2017-12-28T02:03:41.459Z,7.73
2017-12-28T02:06:08.195Z,7.00
2017-12-28T02:08:34.923Z,8.23
2017-12-28T02:11:01.639Z,8.17
2017-12-28T02:13:28.374Z,9.40
2017-12-28T02:15:55.100Z,9.13
2017-12-28T02:18:21.804Z,7.53
2017-12-28T02:20:48.529Z,7.13
2017-12-28T02:23:15.274Z,7.60
2017-12-28T02:25:41.969Z,8.27
2017-12-28T02:28:08.669Z,8.30
2017-12-28T02:30:35.402Z,6.80
2017-12-28T02:33:02.113Z,6.90
2017-12-28T02:35:28.815Z,7.43
2017-12-28T02:37:55.536Z,7.63
2017-12-28T02:40:22.264Z,7.67
2017-12-28T02:42:48.965Z,8.53
2017-12-28T02:45:15.679Z,7.30
2017-12-28T02:47:42.382Z,7.40
2017-12-28T02:50:09.123Z,8.20
2017-12-28T02:52:35.846Z,8.20
2017-12-28T02:55:02.570Z,7.07
2017-12-28T02:57:29.305Z,7.33
2017-12-28T02:59:56.029Z,7.30
2017-12-28T03:02:22.726Z,7.40
2017-12-28T03:04:49.432Z,7.40
2017-12-28T03:07:16.170Z,7.50
2017-12-28T03:09:42.875Z,6.37
2017-12-28T03:12:09.582Z,7.17
2017-12-28T03:14:36.310Z,6.80
2017-12-28T03:17:03.017Z,7.60
2017-12-28T03:19:29.736Z,5.80
2017-12-28T03:21:56.453Z,6.10
2017-12-28T03:24:23.153Z,6.10
2017-12-28T03:26:49.884Z,6.53
2017-12-28T03:29:16.613Z,6.37
2017-12-28T03:31:43.354Z,7.37
2017-12-28T03:34:10.150Z,6.50
2017-12-28T03:36:36.895Z,5.87
2017-12-28T03:39:03.629Z,5.30
2017-12-28T03:41:30.353Z,5.63
2017-12-28T03:43:57.096Z,4.97
2017-12-28T03:46:23.802Z,4.60
2017-12-28T03:48:50.565Z,4.67
2017-12-28T03:51:17.286Z,4.90
2017-12-28T03:53:43.987Z,5.47
2017-12-28T03:56:10.699Z,5.53
2017-12-28T03:58:37.431Z,6.30
2017-12-28T04:01:04.128Z,4.97
2017-12-28T04:03:30.821Z,5.37
2017-12-28T04:05:57.545Z,4.93
2017-12-28T04:08:24.248Z,5.30
2017-12-28T04:10:50.954Z,5.40
2017-12-28T04:13:17.698Z,5.90
2017-12-28T04:15:44.398Z,5.70
2017-12-28T04:18:11.089Z,6.37
2017-12-28T04:20:37.828Z,6.10
2017-12-28T04:23:04.554Z,6.13
2017-12-28T04:25:31.274Z,6.37
2017-12-28T04:27:58.004Z,7.00
2017-12-28T04:30:24.730Z,7.13
2017-12-28T04:32:52.328Z,6.50
2017-12-28T04:35:19.050Z,6.30
2017-12-28T04:37:45.782Z,6.83
2017-12-28T04:40:12.524Z,8.00
2017-12-28T04:42:39.230Z,7.53
2017-12-28T04:45:05.938Z,6.60
2017-12-28T04:47:32.650Z,7.33
2017-12-28T04:49:59.384Z,6.80
2017-12-28T04:52:26.097Z,6.93
2017-12-28T04:54:52.810Z,6.43
2017-12-28T04:57:19.536Z,7.17
2017-12-28T04:59:46.247Z,7.30
2017-12-28T05:02:12.944Z,7.40
2017-12-28T05:04:39.661Z,7.77
2017-12-28T05:07:06.364Z,7.20
2017-12-28T05:09:33.103Z,6.37
2017-12-28T05:11:59.834Z,6.60
2017-12-28T05:14:26.544Z,6.33
2017-12-28T05:16:53.276Z,6.47
2017-12-28T05:19:20.004Z,6.13
2017-12-28T05:21:46.705Z,7.30
2017-12-28T05:24:13.418Z,6.20
2017-12-28T05:26:40.154Z,6.43
2017-12-28T05:29:06.874Z,6.80
2017-12-28T05:31:33.578Z,6.70
2017-12-28T05:34:00.322Z,9.00
2017-12-28T05:36:27.021Z,7.60
2017-12-28T05:38:53.730Z,8.53
2017-12-28T05:41:20.459Z,8.60
2017-12-28T05:43:47.190Z,9.00
2017-12-28T05:46:13.937Z,3.00
2017-12-28T05:48:40.689Z,2.40
2017-12-28T05:51:07.391Z,0.97
2017-12-28T05:53:34.088Z,0.97
2017-12-28T05:56:00.904Z,0.47
2017-12-28T05:58:27.645Z,0.70
2017-12-28T06:00:54.361Z,0.30
2017-12-28T06:03:21.077Z,0.30
2017-12-28T06:05:47.777Z,0.40
2017-12-28T06:08:14.510Z,0.40
2017-12-28T06:10:41.230Z,0.63
2017-12-28T06:13:07.927Z,0.50
2017-12-28T06:15:34.636Z,0.40
2017-12-28T06:18:01.351Z,0.30
2017-12-28T06:20:28.078Z,0.30
2017-12-28T06:22:54.783Z,0.40
2017-12-28T06:25:21.489Z,0.40
2017-12-28T06:27:48.243Z,0.40
2017-12-28T06:30:14.955Z,0.40
2017-12-28T06:32:41.682Z,0.40
2017-12-28T06:35:08.417Z,0.40
2017-12-28T06:37:35.130Z,0.40
2017-12-28T06:40:01.854Z,0.40
2017-12-28T06:42:28.563Z,0.40
2017-12-28T06:44:55.351Z,0.30
2017-12-28T06:47:22.095Z,0.50
2017-12-28T06:49:48.805Z,0.40
2017-12-28T06:52:15.636Z,0.33
2017-12-28T06:54:42.402Z,0.40
2017-12-28T06:57:09.115Z,0.53
2017-12-28T06:59:35.852Z,0.50
2017-12-28T07:02:02.578Z,0.50
2017-12-28T07:04:29.286Z,4.93
2017-12-28T07:06:55.988Z,0.50
2017-12-28T07:09:22.728Z,10.73
2017-12-28T07:11:49.446Z,1.10
2017-12-28T07:14:16.154Z,1.97
2017-12-28T07:16:42.901Z,2.40
2017-12-28T07:19:09.616Z,14.37
2017-12-28T07:21:36.323Z,0.60
2017-12-28T07:24:03.085Z,0.40
2017-12-28T07:26:29.802Z,0.53
2017-12-28T07:28:56.541Z,0.50
2017-12-28T07:31:23.270Z,0.40
2017-12-28T07:33:49.990Z,0.50
2017-12-28T07:36:16.701Z,0.57
2017-12-28T07:38:43.455Z,0.93
2017-12-28T07:41:10.167Z,0.67
2017-12-28T07:43:36.882Z,0.50
2017-12-28T07:46:03.617Z,0.40
2017-12-28T07:48:30.329Z,0.70
2017-12-28T07:50:57.055Z,0.40
2017-12-28T07:53:23.785Z,1.60
2017-12-28T07:55:50.625Z,0.90
2017-12-28T07:58:17.335Z,1.10
2017-12-28T08:00:44.037Z,0.50
2017-12-28T08:03:10.981Z,0.40
2017-12-28T08:05:37.713Z,0.67
2017-12-28T08:08:04.456Z,0.40
2017-12-28T08:10:31.219Z,0.50
2017-12-28T08:12:58.029Z,0.50
2017-12-28T08:15:24.745Z,0.73
2017-12-28T08:17:51.488Z,0.70
2017-12-28T08:20:18.238Z,0.50
2017-12-28T08:22:44.968Z,0.67
2017-12-28T08:25:11.702Z,0.80
2017-12-28T08:27:38.429Z,1.40
2017-12-28T08:30:05.154Z,1.20
2017-12-28T08:32:31.904Z,0.77
2017-12-28T08:34:58.632Z,0.80
2017-12-28T08:37:25.354Z,2.23
2017-12-28T08:39:52.058Z,1.50
2017-12-28T08:42:18.773Z,0.90
2017-12-28T08:44:45.502Z,0.50
2017-12-28T08:47:12.211Z,0.80
2017-12-28T08:49:38.922Z,0.60
2017-12-28T08:52:05.737Z,0.70
2017-12-28T08:54:32.469Z,0.70
2017-12-28T08:56:59.186Z,0.73
2017-12-28T08:59:25.912Z,0.60
2017-12-28T09:01:52.607Z,0.50
2017-12-28T09:04:19.357Z,0.70
2017-12-28T09:06:46.096Z,1.00
2017-12-28T09:09:12.827Z,0.70
2017-12-28T09:11:39.534Z,0.50
2017-12-28T09:14:06.269Z,0.80
2017-12-28T09:16:32.978Z,0.43
2017-12-28T09:18:59.696Z,0.60
2017-12-28T09:21:26.434Z,0.70
2017-12-28T09:23:53.128Z,0.77
2017-12-28T09:26:19.842Z,0.83
2017-12-28T09:28:46.554Z,0.60
2017-12-28T09:31:13.270Z,0.63
2017-12-28T09:33:39.990Z,0.63
2017-12-28T09:36:06.767Z,0.67
2017-12-28T09:38:33.482Z,0.53
2017-12-28T09:41:00.197Z,0.50
2017-12-28T09:43:26.900Z,0.50
2017-12-28T09:45:53.625Z,0.40
2017-12-28T09:48:20.345Z,0.50
2017-12-28T09:50:47.055Z,0.60
2017-12-28T09:53:13.761Z,0.50
2017-12-28T09:55:40.489Z,0.57
2017-12-28T09:58:07.242Z,0.50
2017-12-28T10:00:33.953Z,0.60
2017-12-28T10:03:00.691Z,0.50
2017-12-28T10:05:27.400Z,0.40
2017-12-28T10:07:54.109Z,0.50
2017-12-28T10:10:20.818Z,0.47
2017-12-28T10:12:47.567Z,0.50
2017-12-28T10:15:14.273Z,0.50
2017-12-28T10:17:40.990Z,0.50
2017-12-28T10:20:07.705Z,0.50
2017-12-28T10:22:34.427Z,0.50
2017-12-28T10:25:01.133Z,0.70
2017-12-28T10:27:27.862Z,0.50
2017-12-28T10:29:54.569Z,0.70
2017-12-28T10:32:21.280Z,0.60
2017-12-28T10:34:48.039Z,0.60
2017-12-28T10:37:15.965Z,0.63
2017-12-28T10:39:42.661Z,0.67
2017-12-28T10:42:09.396Z,0.70
2017-12-28T10:44:36.105Z,0.40
2017-12-28T10:47:02.819Z,0.60
2017-12-28T10:49:29.549Z,0.50
2017-12-28T10:51:56.260Z,0.57
2017-12-28T10:54:22.978Z,0.50
2017-12-28T10:56:49.705Z,0.60
2017-12-28T10:59:16.449Z,0.40
2017-12-28T11:01:43.164Z,0.60
2017-12-28T11:04:09.885Z,0.73
2017-12-28T11:06:36.615Z,0.50
2017-12-28T11:09:03.386Z,0.50
2017-12-28T11:11:30.130Z,0.40
2017-12-28T11:13:56.869Z,0.40
2017-12-28T11:16:23.592Z,0.40
2017-12-28T11:18:50.317Z,0.50
2017-12-28T11:21:17.032Z,1.27
2017-12-28T11:23:43.746Z,2.03
2017-12-28T11:26:10.481Z,1.47
2017-12-28T11:28:37.211Z,0.50
2017-12-28T11:31:03.929Z,0.63
2017-12-28T11:33:30.661Z,0.47
2017-12-28T11:35:57.387Z,0.60
2017-12-28T11:38:24.100Z,0.50
2017-12-28T11:40:50.830Z,0.67
2017-12-28T11:43:17.569Z,0.50
2017-12-28T11:45:44.277Z,0.70
2017-12-28T11:48:11.085Z,0.67
2017-12-28T11:50:41.442Z,1.53
2017-12-28T11:53:08.205Z,0.50
2017-12-28T11:55:34.984Z,0.50
2017-12-28T11:58:04.448Z,0.60
2017-12-28T12:00:46.981Z,0.70
2017-12-28T12:03:19.336Z,0.60
2017-12-28T12:05:46.941Z,0.80
2017-12-28T12:08:19.360Z,0.60
2017-12-28T12:10:51.058Z,1.23
2017-12-28T12:13:17.845Z,0.70
2017-12-28T12:15:44.609Z,0.60
2017-12-28T12:18:11.349Z,0.50
2017-12-28T12:20:38.085Z,0.50
2017-12-28T12:23:04.794Z,0.50
2017-12-28T12:25:31.547Z,0.70
2017-12-28T12:27:58.262Z,0.63
2017-12-28T12:30:24.972Z,0.60
2017-12-28T12:32:51.727Z,0.70
2017-12-28T12:35:18.462Z,0.80
2017-12-28T12:37:45.258Z,0.77
2017-12-28T12:40:12.036Z,1.07
2017-12-28T12:42:39.482Z,1.57
2017-12-28T12:45:06.205Z,0.80
2017-12-28T12:47:32.921Z,0.53
2017-12-28T12:49:59.641Z,0.63
2017-12-28T12:52:26.391Z,0.60
2017-12-28T12:54:53.878Z,0.70
2017-12-28T12:57:20.606Z,1.00
2017-12-28T12:59:47.327Z,0.70
2017-12-28T13:02:14.117Z,0.97
2017-12-28T13:04:40.827Z,0.90
2017-12-28T13:07:07.548Z,0.60
2017-12-28T13:09:34.308Z,0.60
2017-12-28T13:12:01.085Z,0.90
2017-12-28T13:14:27.861Z,0.57
2017-12-28T13:16:54.612Z,0.57
2017-12-28T13:19:21.363Z,0.63
2017-12-28T13:21:48.079Z,0.50
2017-12-28T13:24:14.852Z,0.50
2017-12-28T13:26:41.622Z,0.50
2017-12-28T13:29:08.353Z,0.80
2017-12-28T13:31:35.103Z,0.70
2017-12-28T13:34:01.867Z,0.50
2017-12-28T13:36:28.651Z,0.60
2017-12-28T13:38:55.440Z,0.60
2017-12-28T13:41:22.210Z,0.50
2017-12-28T13:43:48.975Z,0.50
2017-12-28T13:46:15.742Z,0.50
2017-12-28T13:48:42.476Z,0.50
2017-12-28T13:51:09.238Z,0.60
2017-12-28T13:53:35.969Z,0.50
2017-12-28T13:56:02.732Z,0.60
2017-12-28T13:58:29.460Z,0.80
2017-12-28T14:00:56.194Z,0.50
2017-12-28T14:03:22.955Z,0.70
2017-12-28T14:05:49.686Z,0.70
2017-12-28T14:08:16.435Z,0.53
2017-12-28T14:10:43.151Z,2.23
2017-12-28T14:13:09.872Z,0.70
2017-12-28T14:15:36.605Z,0.60
2017-12-28T14:18:03.333Z,0.50
2017-12-28T14:20:30.073Z,0.60
2017-12-28T14:22:56.817Z,0.40
2017-12-28T14:25:23.629Z,0.70
2017-12-28T14:27:50.374Z,0.60
2017-12-28T14:30:17.150Z,0.50
2017-12-28T14:32:43.867Z,0.73
2017-12-28T14:35:10.578Z,0.70
2017-12-28T14:37:37.384Z,0.50
2017-12-28T14:40:04.929Z,0.63
2017-12-28T14:42:31.651Z,0.70
2017-12-28T14:44:58.390Z,0.60
2017-12-28T14:47:25.113Z,0.57
2017-12-28T14:49:51.848Z,0.67
2017-12-28T14:52:18.634Z,0.50
2017-12-28T14:54:45.367Z,1.10
2017-12-28T14:57:12.094Z,1.13
2017-12-28T14:59:38.854Z,0.83
2017-12-28T15:02:05.565Z,0.67
2017-12-28T15:04:32.332Z,0.73
2017-12-28T15:06:59.061Z,0.57
2017-12-28T15:09:25.794Z,0.60
2017-12-28T15:11:52.519Z,0.60
2017-12-28T15:14:19.241Z,0.60
2017-12-28T15:16:45.955Z,0.63
2017-12-28T15:19:12.749Z,0.70
2017-12-28T15:21:39.487Z,1.00
2017-12-28T15:24:06.235Z,0.90
2017-12-28T15:26:32.948Z,0.70
2017-12-28T15:28:59.712Z,0.70
2017-12-28T15:31:26.431Z,0.60
2017-12-28T15:33:53.146Z,0.70
2017-12-28T15:36:19.894Z,1.10
2017-12-28T15:38:46.611Z,0.70
2017-12-28T15:41:13.339Z,0.67
2017-12-28T15:43:40.050Z,0.80
2017-12-28T15:46:06.790Z,0.50
2017-12-28T15:48:33.535Z,0.67
2017-12-28T15:51:00.293Z,0.70
2017-12-28T15:53:27.018Z,0.60
2017-12-28T15:55:53.734Z,0.60
2017-12-28T15:58:20.445Z,0.60
2017-12-28T16:00:47.189Z,0.50
2017-12-28T16:03:13.917Z,0.60
2017-12-28T16:05:40.732Z,0.70
2017-12-28T16:08:07.459Z,0.50
2017-12-28T16:10:34.181Z,1.10
2017-12-28T16:13:00.921Z,0.70
2017-12-28T16:15:27.654Z,0.70
2017-12-28T16:17:54.363Z,0.80
2017-12-28T16:20:21.091Z,0.70
2017-12-28T16:22:47.827Z,0.63
2017-12-28T16:25:14.553Z,0.70
2017-12-28T16:27:41.292Z,0.60
2017-12-28T16:30:08.007Z,0.93
2017-12-28T16:32:34.759Z,0.97
2017-12-28T16:35:01.506Z,0.90
2017-12-28T16:37:28.251Z,0.93
2017-12-28T16:39:54.970Z,1.00
2017-12-28T16:42:21.702Z,1.10
2017-12-28T16:44:48.430Z,0.80
2017-12-28T16:47:15.166Z,1.30
2017-12-28T16:49:41.922Z,1.07
2017-12-28T16:52:08.651Z,1.00
2017-12-28T16:54:35.398Z,1.00
2017-12-28T16:57:02.131Z,1.10
2017-12-28T16:59:28.843Z,3.43
2017-12-28T17:01:55.628Z,2.77
2017-12-28T17:04:22.410Z,1.20
2017-12-28T17:06:49.124Z,1.00
2017-12-28T17:09:15.854Z,1.20
2017-12-28T17:11:42.623Z,0.90
2017-12-28T17:14:09.347Z,0.77
2017-12-28T17:16:36.071Z,0.80
2017-12-28T17:19:02.771Z,0.87
2017-12-28T17:21:29.484Z,1.47
2017-12-28T17:23:56.191Z,0.90
2017-12-28T17:26:22.922Z,1.10
2017-12-28T17:28:49.644Z,1.10
2017-12-28T17:31:16.354Z,1.90
2017-12-28T17:33:43.083Z,2.00
2017-12-28T17:36:09.814Z,1.87
2017-12-28T17:38:36.528Z,1.80
2017-12-28T17:41:03.272Z,2.97
2017-12-28T17:43:29.997Z,3.03
2017-12-28T17:45:56.719Z,2.80
2017-12-28T17:48:23.442Z,1.30
2017-12-28T17:50:50.159Z,1.70
2017-12-28T17:53:16.881Z,1.30
2017-12-28T17:55:43.617Z,1.30
2017-12-28T17:58:10.329Z,1.53
2017-12-28T18:00:37.070Z,1.37
2017-12-28T18:03:03.764Z,1.40
2017-12-28T18:05:30.494Z,1.80
2017-12-28T18:07:57.244Z,1.93
2017-12-28T18:10:24.042Z,2.70
2017-12-28T18:12:50.749Z,2.17
2017-12-28T18:15:17.567Z,2.30
2017-12-28T18:17:44.309Z,2.80
2017-12-28T18:20:11.053Z,3.00
2017-12-28T18:22:37.806Z,2.77
2017-12-28T18:25:04.536Z,2.80
2017-12-28T18:27:31.240Z,3.27
2017-12-28T18:29:57.972Z,3.10
2017-12-28T18:32:24.694Z,4.13
2017-12-28T18:34:51.400Z,3.60
2017-12-28T18:37:18.100Z,3.73
2017-12-28T18:39:44.849Z,3.50
2017-12-28T18:42:11.580Z,2.83
2017-12-28T18:44:38.298Z,3.00
2017-12-28T18:47:05.027Z,4.30
2017-12-28T18:49:31.747Z,3.70
2017-12-28T18:51:58.457Z,4.50
2017-12-28T18:54:25.178Z,5.90
2017-12-28T18:56:51.936Z,6.50
2017-12-28T18:59:18.647Z,6.70
2017-12-28T19:01:45.382Z,7.40
2017-12-28T19:04:12.098Z,5.60
2017-12-28T19:06:38.822Z,5.40
2017-12-28T19:09:05.561Z,6.73
2017-12-28T19:11:32.291Z,7.70
2017-12-28T19:13:59.016Z,6.90
2017-12-28T19:16:25.758Z,6.60
2017-12-28T19:18:52.469Z,7.07
2017-12-28T19:21:19.193Z,6.50
2017-12-28T19:23:45.930Z,5.80
2017-12-28T19:26:12.653Z,6.20
2017-12-28T19:28:39.362Z,8.50
2017-12-28T19:31:06.102Z,8.67
2017-12-28T19:33:32.828Z,8.63
2017-12-28T19:35:59.594Z,9.63
2017-12-28T19:38:26.317Z,8.97
2017-12-28T19:40:53.035Z,9.40
2017-12-28T19:43:20.236Z,9.90
2017-12-28T19:45:47.603Z,8.77
2017-12-28T19:48:14.578Z,9.70
2017-12-28T19:50:41.310Z,7.03
2017-12-28T19:53:08.050Z,8.10
2017-12-28T19:55:34.765Z,7.57
2017-12-28T19:58:01.499Z,7.20
2017-12-28T20:00:28.261Z,8.20
2017-12-28T20:02:54.982Z,7.50
2017-12-28T20:05:21.729Z,6.97
2017-12-28T20:07:48.490Z,7.00
2017-12-28T20:10:15.214Z,7.20
2017-12-28T20:12:41.945Z,6.73
2017-12-28T20:15:08.724Z,8.43
2017-12-28T20:17:35.488Z,8.43
2017-12-28T20:20:02.211Z,6.97
2017-12-28T20:22:30.253Z,8.77
2017-12-28T20:24:57.045Z,8.50
2017-12-28T20:27:23.804Z,9.03
2017-12-28T20:29:50.561Z,9.33
2017-12-28T20:32:17.277Z,7.80
2017-12-28T20:34:43.998Z,7.40
2017-12-28T20:37:10.726Z,8.70
2017-12-28T20:39:37.506Z,48.90
2017-12-28T20:42:04.240Z,26.23
2017-12-28T20:44:30.996Z,37.87
2017-12-28T20:46:57.747Z,30.20
2017-12-28T20:49:24.487Z,40.33
2017-12-28T20:51:51.257Z,9.27
2017-12-28T20:54:18.032Z,9.20
2017-12-28T20:56:45.302Z,8.80
2017-12-28T20:59:12.118Z,9.07
2017-12-28T21:01:38.850Z,10.10
2017-12-28T21:04:05.923Z,8.73
2017-12-28T21:06:32.660Z,9.90
2017-12-28T21:08:59.847Z,9.90
2017-12-28T21:11:26.654Z,10.07
2017-12-28T21:13:53.886Z,10.40
2017-12-28T21:16:20.612Z,10.40
2017-12-28T21:18:47.346Z,11.00
2017-12-28T21:21:14.109Z,12.00
2017-12-28T21:23:40.845Z,10.77
2017-12-28T21:26:07.569Z,11.63
2017-12-28T21:28:34.301Z,10.33
2017-12-28T21:31:01.031Z,10.63
2017-12-28T21:33:27.764Z,10.80
2017-12-28T21:35:54.514Z,10.87
2017-12-28T21:38:21.253Z,10.17
2017-12-28T21:40:47.988Z,11.13
2017-12-28T21:43:14.739Z,11.77
2017-12-28T21:45:41.474Z,10.00
2017-12-28T21:48:08.214Z,9.87
2017-12-28T21:50:34.999Z,10.90
2017-12-28T21:53:01.735Z,11.03
2017-12-28T21:55:28.437Z,9.43
2017-12-28T21:57:55.175Z,10.67
2017-12-28T22:00:21.893Z,10.50
2017-12-28T22:02:49.843Z,9.60
2017-12-28T22:05:16.608Z,10.40
2017-12-28T22:07:43.365Z,11.13
2017-12-28T22:10:10.085Z,10.53
2017-12-28T22:12:36.849Z,10.43
2017-12-28T22:15:03.596Z,10.63
2017-12-28T22:17:30.439Z,10.10
2017-12-28T22:19:57.231Z,12.23
2017-12-28T22:22:23.969Z,12.03
2017-12-28T22:24:50.687Z,13.63
2017-12-28T22:27:17.424Z,12.03
2017-12-28T22:29:44.179Z,13.50
2017-12-28T22:32:10.890Z,12.63
2017-12-28T22:34:37.621Z,13.63
2017-12-28T22:37:04.382Z,14.03
2017-12-28T22:39:31.109Z,14.63
2017-12-28T22:41:57.846Z,14.70
2017-12-28T22:44:24.578Z,12.43
2017-12-28T22:46:51.307Z,12.13
2017-12-28T22:49:18.102Z,11.87
2017-12-28T22:51:44.873Z,12.67
2017-12-28T22:54:11.585Z,11.90
2017-12-28T22:56:38.323Z,12.80
2017-12-28T22:59:05.062Z,11.70
2017-12-28T23:01:31.782Z,12.60
2017-12-28T23:03:58.529Z,13.13
2017-12-28T23:06:25.253Z,12.73
2017-12-28T23:08:51.979Z,12.03
2017-12-28T23:11:18.728Z,12.97
2017-12-28T23:13:45.454Z,11.00
2017-12-28T23:16:12.202Z,11.80
2017-12-28T23:18:38.921Z,12.20
2017-12-28T23:21:05.688Z,12.03
2017-12-28T23:23:32.399Z,12.07
2017-12-28T23:25:59.140Z,12.50
2017-12-28T23:28:25.876Z,12.13
2017-12-28T23:30:52.648Z,11.40
2017-12-28T23:33:19.393Z,10.00
2017-12-28T23:35:46.130Z,9.73
2017-12-28T23:38:14.096Z,9.80
2017-12-28T23:40:40.830Z,9.70
2017-12-28T23:43:07.550Z,11.07
2017-12-28T23:45:34.255Z,10.17
2017-12-28T23:48:01.005Z,10.87
2017-12-28T23:50:27.722Z,11.30
2017-12-28T23:52:54.440Z,10.40
2017-12-28T23:55:21.185Z,11.10
2017-12-28T23:57:47.919Z,11.80
